Time;durP1;ratioP1;P1;durP2;ratioP2;P2;SDS_P1;SDS_P2;PMS_P1;PMS_P2;Temp;Humidity;BMP_temperature;BMP_pressure;BME280_temperature;BME280_humidity;BME280_pressure;Samples;Min_cycle;Max_cycle;Signal;HPM_P1;HPM_P2
2022/05/08 00:01:37;;;;;;;8.45;5.55;;;24.50;99.90;;;;;;5050743;28;20056;-46
2022/05/08 00:04:03;;;;;;;7.50;6.22;;;24.50;99.90;;;;;;5050863;28;20516;-46
2022/05/08 00:06:29;;;;;;;6.70;5.50;;;24.50;99.90;;;;;;5051028;28;20064;-46
2022/05/08 00:08:55;;;;;;;8.45;5.78;;;24.50;99.90;;;;;;5051336;28;20453;-46
2022/05/08 00:11:21;;;;;;;10.00;5.75;;;24.50;99.90;;;;;;5050891;28;20089;-47
2022/05/08 00:13:48;;;;;;;6.95;5.38;;;24.50;99.90;;;;;;5052430;28;20075;-47
2022/05/08 00:16:14;;;;;;;6.10;4.85;;;24.50;99.90;;;;;;5054579;28;20385;-47
2022/05/08 00:18:40;;;;;;;9.68;6.55;;;24.50;99.90;;;;;;5054794;28;20037;-47
2022/05/08 00:21:06;;;;;;;7.05;5.25;;;24.50;99.90;;;;;;5054614;28;20021;-47
2022/05/08 00:23:33;;;;;;;7.68;5.95;;;24.50;99.90;;;;;;5054667;28;20043;-47
2022/05/08 00:25:59;;;;;;;6.90;5.40;;;24.50;99.90;;;;;;5054808;28;20078;-47
2022/05/08 00:28:24;;;;;;;6.68;5.50;;;24.50;99.90;;;;;;5054562;28;20017;-47
2022/05/08 00:30:50;;;;;;;9.07;6.00;;;24.50;99.90;;;;;;5054797;28;20033;-46
2022/05/08 00:33:16;;;;;;;7.97;6.13;;;24.50;99.90;;;;;;5054784;28;20049;-46
2022/05/08 00:35:42;;;;;;;8.95;6.15;;;24.50;99.90;;;;;;5054414;28;20459;-46
2022/05/08 00:38:08;;;;;;;8.75;6.03;;;24.50;99.90;;;;;;5054294;28;20112;-46
2022/05/08 00:40:35;;;;;;;7.22;5.60;;;24.50;99.90;;;;;;5054485;28;20070;-47
2022/05/08 00:43:28;;;;;;;9.00;6.55;;;24.50;99.90;;;;;;5054323;28;20021;-46
2022/05/08 00:45:58;;;;;;;7.60;6.07;;;24.40;99.90;;;;;;5054246;28;20056;-46
2022/05/08 00:48:24;;;;;;;8.02;6.60;;;24.50;99.90;;;;;;5054142;28;20052;-46
2022/05/08 00:50:54;;;;;;;7.80;6.50;;;24.50;99.90;;;;;;5054196;28;20049;-47
2022/05/08 00:53:20;;;;;;;7.68;6.28;;;24.50;99.90;;;;;;5054295;28;20025;-47
2022/05/08 00:55:47;;;;;;;7.50;6.70;;;24.40;99.90;;;;;;5053980;28;20017;-47
2022/05/08 00:58:14;;;;;;;8.67;6.00;;;24.40;99.90;;;;;;5054019;28;20037;-47
2022/05/08 01:00:40;;;;;;;9.90;5.88;;;24.40;99.90;;;;;;5054449;28;20285;-47
2022/05/08 01:03:06;;;;;;;9.10;6.20;;;24.40;99.90;;;;;;5053895;28;20477;-46
2022/05/08 01:05:32;;;;;;;8.02;5.95;;;24.40;99.90;;;;;;5054034;28;20374;-47
2022/05/08 01:07:58;;;;;;;8.82;6.15;;;24.40;99.90;;;;;;5054031;28;20036;-47
2022/05/08 01:10:23;;;;;;;8.75;6.10;;;24.40;99.90;;;;;;5053811;28;20037;-46
2022/05/08 01:12:50;;;;;;;8.32;5.72;;;24.40;99.90;;;;;;5053832;28;20025;-47
2022/05/08 01:15:18;;;;;;;8.93;6.55;;;24.40;99.90;;;;;;5053791;28;20029;-46
2022/05/08 01:17:45;;;;;;;7.25;5.78;;;24.40;99.90;;;;;;5053556;28;20055;-46
2022/05/08 01:20:11;;;;;;;9.13;7.32;;;24.40;99.90;;;;;;5053534;28;20048;-46
2022/05/08 01:22:38;;;;;;;7.38;5.72;;;24.40;99.90;;;;;;5053729;28;20387;-46
2022/05/08 01:25:05;;;;;;;8.65;5.65;;;24.40;99.90;;;;;;5052872;28;20447;-47
2022/05/08 01:27:30;;;;;;;8.05;6.53;;;24.30;99.90;;;;;;5053790;28;20084;-47
2022/05/08 01:29:56;;;;;;;7.03;5.90;;;24.40;99.90;;;;;;5053463;28;20031;-47
2022/05/08 01:32:22;;;;;;;7.70;6.25;;;24.40;99.90;;;;;;5053403;28;20040;-47
2022/05/08 01:34:48;;;;;;;8.50;6.43;;;24.40;99.90;;;;;;5053322;28;20021;-47
2022/05/08 01:37:14;;;;;;;9.30;5.88;;;24.40;99.90;;;;;;5053243;28;20037;-46
2022/05/08 01:39:39;;;;;;;7.55;6.70;;;24.30;99.90;;;;;;5053195;28;20032;-46
2022/05/08 01:42:06;;;;;;;8.65;5.93;;;24.40;99.90;;;;;;5053225;28;20472;-46
2022/05/08 01:44:34;;;;;;;7.40;5.63;;;24.30;99.90;;;;;;5053491;28;20086;-46
2022/05/08 01:49:46;;;;;;;10.15;6.72;;;24.40;99.90;;;;;;5053443;28;20020;-46
2022/05/08 01:52:11;;;;;;;6.57;5.85;;;24.30;99.90;;;;;;5053043;28;20044;-47
2022/05/08 01:54:37;;;;;;;7.85;5.47;;;24.40;99.90;;;;;;5052962;28;20115;-47
2022/05/08 01:57:03;;;;;;;7.45;5.72;;;24.30;99.90;;;;;;5035217;28;20078;-46
2022/05/08 01:59:29;;;;;;;7.53;6.32;;;24.30;99.90;;;;;;5053425;28;20100;-46
2022/05/08 02:01:55;;;;;;;7.75;6.00;;;24.30;99.90;;;;;;5052670;28;20808;-46
2022/05/08 02:04:20;;;;;;;7.85;5.65;;;24.30;99.90;;;;;;5052772;28;20021;-47
2022/05/08 02:06:46;;;;;;;6.90;5.78;;;24.30;99.90;;;;;;5052896;28;20024;-46
2022/05/08 02:09:12;;;;;;;7.82;5.93;;;24.30;99.90;;;;;;5052776;28;20017;-46
2022/05/08 02:11:38;;;;;;;7.63;5.90;;;24.30;99.90;;;;;;5052649;28;20504;-46
2022/05/08 02:14:04;;;;;;;6.40;5.47;;;24.30;99.90;;;;;;5052685;28;20013;-46
2022/05/08 02:16:30;;;;;;;7.93;5.80;;;24.30;99.90;;;;;;5052559;28;20108;-46
2022/05/08 02:18:56;;;;;;;6.28;5.13;;;24.30;99.90;;;;;;5052417;28;20112;-46
2022/05/08 02:21:22;;;;;;;6.72;4.88;;;24.30;99.90;;;;;;5052752;28;20040;-46
2022/05/08 02:23:47;;;;;;;7.85;5.55;;;24.30;99.90;;;;;;5052711;28;20100;-47
2022/05/08 02:26:13;;;;;;;6.78;5.43;;;24.30;99.90;;;;;;5052345;28;20099;-47
2022/05/08 02:28:39;;;;;;;8.30;5.72;;;24.30;99.90;;;;;;5052425;28;20033;-46
2022/05/08 02:31:05;;;;;;;5.20;4.50;;;24.30;99.90;;;;;;5052314;28;20029;-47
2022/05/08 02:33:32;;;;;;;6.28;5.05;;;24.20;99.90;;;;;;5052324;28;20078;-47
2022/05/08 02:35:58;;;;;;;7.13;4.75;;;24.20;99.90;;;;;;5052343;28;20449;-47
2022/05/08 02:38:25;;;;;;;6.47;5.22;;;24.20;99.90;;;;;;5051074;28;20545;-46
2022/05/08 02:40:51;;;;;;;6.35;5.47;;;24.20;99.90;;;;;;5052215;28;20531;-46
2022/05/08 02:43:20;;;;;;;6.78;4.82;;;24.30;99.90;;;;;;5052235;28;20025;-46
2022/05/08 02:45:47;;;;;;;6.50;5.30;;;24.20;99.90;;;;;;5052154;28;20468;-46
2022/05/08 02:48:31;;;;;;;5.65;5.05;;;24.30;99.90;;;;;;5051808;28;20061;-47
2022/05/08 02:50:58;;;;;;;8.48;5.22;;;24.20;99.90;;;;;;5051881;28;20071;-47
2022/05/08 02:53:23;;;;;;;6.78;5.13;;;24.20;99.90;;;;;;5051801;28;20070;-47
2022/05/08 02:58:33;;;;;;;6.55;4.63;;;24.20;99.90;;;;;;5052103;28;20047;-46
2022/05/08 03:01:01;;;;;;;5.38;4.72;;;24.20;99.90;;;;;;5052051;28;20460;-47
2022/05/08 03:03:26;;;;;;;6.13;4.72;;;24.20;99.90;;;;;;5051724;28;20032;-46
2022/05/08 03:05:52;;;;;;;5.68;5.07;;;24.20;99.90;;;;;;5051778;28;20036;-46
2022/05/08 03:08:19;;;;;;;7.32;5.25;;;24.20;99.90;;;;;;5051554;28;20071;-46
2022/05/08 03:13:35;;;;;;;5.88;4.55;;;24.20;99.90;;;;;;5051947;28;20500;-47
2022/05/08 03:16:02;;;;;;;5.57;5.00;;;24.20;99.90;;;;;;5051635;28;20033;-46
2022/05/08 03:18:28;;;;;;;7.13;5.00;;;24.20;99.90;;;;;;5051420;28;20041;-46
2022/05/08 03:20:53;;;;;;;7.05;5.13;;;24.20;99.90;;;;;;5051611;28;20029;-46
2022/05/08 03:23:19;;;;;;;5.60;4.43;;;24.10;99.90;;;;;;5051435;28;20020;-46
2022/05/08 03:25:46;;;;;;;5.80;4.70;;;24.20;99.90;;;;;;5051245;28;20031;-46
2022/05/08 03:28:15;;;;;;;6.30;4.60;;;24.10;99.90;;;;;;5051227;28;20031;-47
2022/05/08 03:30:41;;;;;;;6.43;4.80;;;24.10;99.90;;;;;;5051302;28;20033;-46
2022/05/08 03:33:09;;;;;;;5.30;4.57;;;24.20;99.90;;;;;;5051365;28;20414;-46
2022/05/08 03:35:38;;;;;;;;;;;24.10;99.90;;;;;;5051556;28;20033;-47
2022/05/08 03:38:05;;;;;;;6.00;4.70;;;24.20;99.90;;;;;;5051120;28;19912;-46
2022/05/08 03:40:35;;;;;;;7.13;4.55;;;24.10;99.90;;;;;;5051123;28;20076;-46
2022/05/08 03:43:21;;;;;;;7.05;4.53;;;24.10;99.90;;;;;;5051090;28;20027;-46
2022/05/08 03:45:50;;;;;;;5.85;4.75;;;24.10;99.90;;;;;;5051230;28;20180;-47
2022/05/08 03:48:18;;;;;;;6.75;4.63;;;24.10;99.90;;;;;;5050849;28;20017;-47
2022/05/08 03:50:44;;;;;;;5.80;4.57;;;24.10;99.90;;;;;;5051226;28;20109;-47
2022/05/08 03:53:10;;;;;;;7.97;5.20;;;24.10;99.90;;;;;;5051001;28;20033;-47
2022/05/08 03:55:36;;;;;;;6.20;4.25;;;24.10;99.90;;;;;;5051028;28;20013;-47
2022/05/08 03:58:02;;;;;;;5.95;4.35;;;24.10;99.90;;;;;;5050913;28;20096;-47
2022/05/08 04:00:29;;;;;;;4.38;3.88;;;24.10;99.90;;;;;;5054469;22;20443;-49
2022/05/08 04:02:55;;;;;;;;;;;24.10;99.90;;;;;;5031803;28;20463;-49
2022/05/08 04:05:40;;;;;;;5.07;4.05;;;24.10;99.90;;;;;;5031047;28;19944;-49
2022/05/08 04:08:06;;;;;;;5.75;4.30;;;24.10;99.90;;;;;;5031157;28;20026;-49
2022/05/08 04:10:33;;;;;;;5.03;3.83;;;24.10;99.90;;;;;;5031061;28;20029;-50
2022/05/08 04:12:59;;;;;;;5.15;4.25;;;24.10;99.90;;;;;;5030958;28;20036;-50
2022/05/08 04:18:09;;;;;;;5.90;4.07;;;24.00;99.90;;;;;;5031048;28;20052;-50
2022/05/08 04:20:36;;;;;;;5.38;4.28;;;24.00;99.90;;;;;;5031032;28;20461;-50
2022/05/08 04:25:46;;;;;;;4.13;3.22;;;24.00;99.90;;;;;;5031330;28;20032;-49
2022/05/08 04:28:12;;;;;;;6.25;4.57;;;24.00;99.90;;;;;;5031194;28;20405;-50
2022/05/08 04:30:38;;;;;;;6.53;3.72;;;24.00;99.90;;;;;;5031145;28;20092;-50
2022/05/08 04:33:04;;;;;;;4.97;3.75;;;24.00;99.90;;;;;;5030825;28;20460;-50
2022/05/08 04:35:30;;;;;;;4.25;3.55;;;24.00;99.90;;;;;;5030990;28;20108;-50
2022/05/08 04:38:15;;;;;;;4.55;3.60;;;24.00;99.90;;;;;;5030932;28;20083;-50
2022/05/08 04:40:59;;;;;;;3.85;3.30;;;24.00;99.90;;;;;;5030782;28;20028;-50
2022/05/08 04:43:25;;;;;;;4.10;3.47;;;24.00;99.90;;;;;;5031042;28;20021;-50
2022/05/08 04:45:51;;;;;;;6.25;3.50;;;24.00;99.90;;;;;;5030705;28;20075;-50
2022/05/08 04:48:17;;;;;;;3.97;3.22;;;24.00;99.90;;;;;;5030726;28;20029;-51
2022/05/08 04:50:42;;;;;;;4.25;3.78;;;24.00;99.90;;;;;;5030631;28;20056;-50
2022/05/08 04:53:08;;;;;;;4.38;3.65;;;24.00;99.90;;;;;;5030723;28;20049;-50
2022/05/08 04:55:34;;;;;;;6.07;3.25;;;24.00;99.90;;;;;;5030649;28;20017;-50
2022/05/08 04:58:00;;;;;;;4.60;3.42;;;24.00;99.90;;;;;;5030883;28;20163;-50
2022/05/08 05:00:26;;;;;;;3.75;3.35;;;24.00;99.90;;;;;;5031558;28;20132;-50
2022/05/08 05:02:52;;;;;;;4.47;3.45;;;24.00;99.90;;;;;;5034029;28;20030;-50
2022/05/08 05:05:18;;;;;;;4.07;3.33;;;24.00;99.90;;;;;;5034171;28;20091;-50
2022/05/08 05:07:44;;;;;;;5.55;3.63;;;24.00;99.90;;;;;;5034123;28;20030;-50
2022/05/08 05:10:11;;;;;;;3.78;3.13;;;24.00;99.90;;;;;;5033967;28;20056;-50
2022/05/08 05:12:37;;;;;;;3.75;3.08;;;24.00;99.90;;;;;;5034089;28;20036;-50
2022/05/08 05:15:05;;;;;;;3.92;3.05;;;23.90;99.90;;;;;;5033968;28;20087;-50
2022/05/08 05:17:30;;;;;;;;;;;24.00;99.90;;;;;;5034410;28;20034;-50
2022/05/08 05:19:56;;;;;;;4.03;3.35;;;23.90;99.90;;;;;;5034146;28;19928;-50
2022/05/08 05:22:23;;;;;;;4.00;3.20;;;24.00;99.90;;;;;;5033834;28;20503;-50
2022/05/08 05:24:49;;;;;;;3.58;3.17;;;24.00;99.90;;;;;;5033671;28;20021;-50
2022/05/08 05:27:15;;;;;;;3.85;2.95;;;24.00;99.90;;;;;;5033885;28;20025;-50
2022/05/08 05:29:41;;;;;;;3.40;3.10;;;23.90;99.90;;;;;;5033648;28;20468;-50
2022/05/08 05:32:07;;;;;;;3.22;2.92;;;23.90;99.90;;;;;;5033599;28;20060;-50
2022/05/08 05:34:33;;;;;;;3.67;3.38;;;23.90;99.90;;;;;;5033578;28;20479;-50
2022/05/08 05:36:59;;;;;;;3.83;3.20;;;24.00;99.90;;;;;;5033521;28;20045;-51
2022/05/08 05:39:25;;;;;;;4.32;3.03;;;23.90;99.90;;;;;;5033474;28;20037;-50
2022/05/08 05:42:09;;;;;;;5.47;3.10;;;23.90;99.90;;;;;;5033553;28;20108;-51
2022/05/08 05:44:35;;;;;;;4.53;3.45;;;24.00;99.90;;;;;;5033355;28;20057;-49
2022/05/08 05:49:45;;;;;;;2.88;2.65;;;23.90;99.90;;;;;;5033210;28;20024;-49
2022/05/08 05:52:11;;;;;;;3.40;3.10;;;24.00;99.90;;;;;;5033289;28;20404;-50
2022/05/08 05:54:37;;;;;;;3.83;3.00;;;23.90;99.90;;;;;;5033245;28;20380;-50
2022/05/08 05:57:03;;;;;;;3.28;2.88;;;23.90;99.90;;;;;;5033268;28;20037;-50
2022/05/08 05:59:29;;;;;;;4.00;3.03;;;23.90;99.90;;;;;;5033052;28;20021;-50
2022/05/08 06:01:56;;;;;;;4.00;3.22;;;23.90;99.90;;;;;;5033093;28;20026;-50
2022/05/08 06:04:22;;;;;;;3.45;3.05;;;23.90;99.90;;;;;;5033162;28;20029;-50
2022/05/08 06:06:48;;;;;;;4.05;3.00;;;24.00;99.90;;;;;;5032894;28;20095;-50
2022/05/08 06:09:13;;;;;;;3.65;2.88;;;23.90;99.90;;;;;;5015142;28;20025;-51
2022/05/08 06:11:39;;;;;;;4.05;3.25;;;24.00;99.90;;;;;;5032724;28;20472;-50
2022/05/08 06:14:05;;;;;;;4.35;3.17;;;24.00;99.90;;;;;;5032781;28;20029;-50
2022/05/08 06:16:49;;;;;;;3.50;3.20;;;24.00;99.90;;;;;;5033046;28;20056;-50
2022/05/08 06:19:15;;;;;;;4.28;2.65;;;24.00;99.90;;;;;;5032762;28;20060;-50
2022/05/08 06:21:41;;;;;;;3.28;2.92;;;24.00;99.90;;;;;;5032686;28;20053;-50
2022/05/08 06:24:07;;;;;;;3.38;2.95;;;24.00;99.90;;;;;;5032759;28;20021;-50
2022/05/08 06:26:33;;;;;;;3.15;2.85;;;24.00;99.90;;;;;;5032881;28;20435;-50
2022/05/08 06:28:59;;;;;;;3.97;3.40;;;24.00;99.90;;;;;;5032488;28;20032;-50
2022/05/08 06:31:25;;;;;;;4.53;3.03;;;24.00;99.90;;;;;;5032552;28;20476;-51
2022/05/08 06:33:51;;;;;;;3.28;2.97;;;24.00;99.90;;;;;;5032492;28;20389;-49
2022/05/08 06:36:17;;;;;;;3.78;3.08;;;24.00;99.90;;;;;;5032496;28;20028;-50
2022/05/08 06:38:45;;;;;;;3.70;3.30;;;24.00;99.90;;;;;;5032287;28;20427;-50
2022/05/08 06:41:11;;;;;;;3.60;2.85;;;24.00;99.90;;;;;;5032203;28;20029;-50
2022/05/08 06:43:40;;;;;;;5.30;3.58;;;24.00;99.90;;;;;;5032142;28;20032;-50
2022/05/08 06:46:07;;;;;;;3.47;2.80;;;24.00;99.90;;;;;;5032428;28;20053;-51
2022/05/08 06:48:33;;;;;;;4.05;3.10;;;24.00;99.90;;;;;;5032544;28;20041;-51
2022/05/08 06:50:58;;;;;;;3.25;2.80;;;24.00;99.90;;;;;;5032183;28;20034;-51
2022/05/08 06:53:26;;;;;;;3.53;2.58;;;24.00;99.90;;;;;;5031989;28;20026;-51
2022/05/08 06:55:52;;;;;;;4.05;3.10;;;24.10;99.90;;;;;;5032125;28;20025;-51
2022/05/08 06:58:20;;;;;;;3.47;2.55;;;24.00;99.90;;;;;;5014234;28;20136;-51
2022/05/08 07:03:31;;;;;;;3.45;3.15;;;24.10;99.90;;;;;;5032257;28;20378;-49
2022/05/08 07:05:57;;;;;;;3.45;2.83;;;24.10;99.90;;;;;;5031929;28;20116;-49
2022/05/08 07:08:23;;;;;;;3.22;2.70;;;24.10;99.90;;;;;;5031765;28;20116;-49
2022/05/08 07:10:49;;;;;;;3.40;3.10;;;24.10;99.90;;;;;;5031622;28;20025;-50
2022/05/08 07:13:16;;;;;;;3.97;2.92;;;24.10;99.90;;;;;;5031789;28;20033;-50
2022/05/08 07:15:41;;;;;;;3.55;3.20;;;24.10;99.90;;;;;;5031620;28;20108;-50
2022/05/08 07:18:07;;;;;;;3.22;2.85;;;24.10;99.90;;;;;;5031643;28;20121;-50
2022/05/08 07:20:34;;;;;;;4.20;2.72;;;24.10;99.90;;;;;;5031843;28;20025;-50
2022/05/08 07:23:00;;;;;;;4.82;3.40;;;24.10;99.90;;;;;;5031119;28;20049;-50
2022/05/08 07:25:26;;;;;;;3.13;2.83;;;24.10;99.90;;;;;;5031593;28;20014;-51
2022/05/08 07:27:52;;;;;;;4.57;3.33;;;24.10;99.90;;;;;;5031453;28;20021;-50
2022/05/08 07:30:18;;;;;;;3.70;2.70;;;24.10;99.90;;;;;;5031473;28;20030;-51
2022/05/08 07:32:44;;;;;;;3.20;2.90;;;24.10;99.90;;;;;;5031573;28;20100;-50
2022/05/08 07:37:55;;;;;;;4.43;3.33;;;24.10;99.90;;;;;;5031397;28;20048;-50
2022/05/08 07:43:05;;;;;;;3.95;3.38;;;24.10;99.90;;;;;;5031437;28;20063;-50
2022/05/08 07:45:31;;;;;;;4.13;3.38;;;24.10;99.90;;;;;;5031313;28;20056;-51
2022/05/08 07:47:56;;;;;;;5.03;3.58;;;24.10;99.90;;;;;;5031472;28;20037;-51
2022/05/08 07:50:22;;;;;;;3.55;2.78;;;24.10;99.90;;;;;;5031291;28;20029;-50
2022/05/08 07:52:48;;;;;;;3.20;2.90;;;24.10;99.90;;;;;;5031273;28;20026;-50
2022/05/08 07:55:14;;;;;;;3.58;2.67;;;24.10;99.90;;;;;;5031233;28;20057;-50
2022/05/08 07:57:39;;;;;;;3.33;2.92;;;24.10;99.90;;;;;;5031187;28;20392;-50
2022/05/08 08:00:06;;;;;;;3.00;2.70;;;24.10;99.90;;;;;;5031006;28;20121;-51
2022/05/08 08:02:32;;;;;;;6.43;3.00;;;24.10;99.90;;;;;;5031290;28;20441;-51
2022/05/08 08:04:57;;;;;;;4.82;3.30;;;24.10;99.90;;;;;;5030916;28;20061;-51
2022/05/08 08:07:23;;;;;;;3.95;3.10;;;24.10;99.90;;;;;;5031223;28;20052;-49
2022/05/08 08:09:49;;;;;;;3.45;2.92;;;24.10;99.90;;;;;;5031008;28;20464;-50
2022/05/08 08:12:15;;;;;;;3.10;2.80;;;24.10;99.90;;;;;;5031047;28;20022;-50
2022/05/08 08:14:41;;;;;;;3.45;3.08;;;24.10;99.90;;;;;;5031075;28;20380;-50
2022/05/08 08:17:08;;;;;;;3.72;3.00;;;24.10;99.90;;;;;;5030949;28;20037;-50
2022/05/08 08:19:33;;;;;;;3.38;2.60;;;24.10;99.90;;;;;;5031062;28;20053;-49
2022/05/08 08:22:00;;;;;;;3.55;3.20;;;24.10;99.90;;;;;;5030936;28;20534;-50
2022/05/08 08:24:25;;;;;;;3.22;2.63;;;24.10;99.90;;;;;;5030849;28;20022;-50
2022/05/08 08:26:51;;;;;;;3.85;3.42;;;24.10;99.90;;;;;;5031001;28;20477;-50
2022/05/08 08:29:17;;;;;;;3.40;3.10;;;24.10;99.90;;;;;;5031101;28;20499;-49
2022/05/08 08:31:43;;;;;;;3.03;2.70;;;24.10;99.90;;;;;;5030871;28;20369;-49
2022/05/08 08:34:09;;;;;;;3.85;3.08;;;24.10;99.90;;;;;;5031204;28;20361;-49
2022/05/08 08:36:36;;;;;;;3.13;2.80;;;24.10;99.90;;;;;;5033559;28;20036;-49
2022/05/08 08:39:02;;;;;;;2.85;2.50;;;24.10;99.90;;;;;;5034648;28;20500;-50
2022/05/08 08:41:36;;;;;;;3.45;2.97;;;24.20;99.90;;;;;;5034551;28;20542;-50
2022/05/08 08:49:52;;;;;;;3.80;3.20;;;24.20;99.90;;;;;;5034546;28;20057;-49
2022/05/08 08:52:21;;;;;;;3.60;3.17;;;24.20;99.90;;;;;;5034255;28;20473;-50
2022/05/08 08:54:46;;;;;;;3.38;2.97;;;24.20;99.90;;;;;;5034149;28;20034;-49
2022/05/08 08:57:13;;;;;;;2.97;2.75;;;24.20;99.90;;;;;;5034323;28;20392;-50
2022/05/08 08:59:39;;;;;;;3.17;2.88;;;24.20;99.90;;;;;;5034163;28;20029;-50
2022/05/08 09:02:17;;;;;;;3.25;2.72;;;24.20;99.90;;;;;;5034151;28;20025;-49
2022/05/08 09:04:48;;;;;;;3.78;3.15;;;24.20;99.90;;;;;;5034267;28;20025;-50
2022/05/08 09:07:48;;;;;;;3.15;2.85;;;24.20;99.90;;;;;;5034045;28;20025;-50
2022/05/08 09:10:23;;;;;;;3.50;3.20;;;24.30;99.90;;;;;;5033786;28;20026;-50
2022/05/08 09:12:52;;;;;;;3.17;2.88;;;24.30;99.90;;;;;;5033771;28;20240;-51
2022/05/08 09:15:20;;;;;;;3.08;2.50;;;24.30;99.90;;;;;;5033839;28;20021;-50
2022/05/08 09:17:47;;;;;;;3.33;2.70;;;24.30;99.90;;;;;;5033628;28;20029;-50
2022/05/08 09:20:47;;;;;;;3.83;2.80;;;24.30;99.90;;;;;;5033898;28;20040;-51
2022/05/08 09:23:16;;;;;;;3.40;3.05;;;24.30;99.90;;;;;;5033753;28;20507;-50
2022/05/08 09:25:45;;;;;;;2.60;2.40;;;24.30;99.90;;;;;;5033555;28;20022;-50
2022/05/08 09:28:16;;;;;;;3.03;2.67;;;24.30;99.90;;;;;;5033458;28;20365;-50
2022/05/08 09:31:01;;;;;;;4.10;2.90;;;24.30;99.90;;;;;;5033612;28;20096;-50
2022/05/08 09:33:33;;;;;;;3.33;3.03;;;24.30;99.90;;;;;;5033550;28;20113;-49
2022/05/08 09:36:01;;;;;;;3.65;3.05;;;24.30;99.90;;;;;;5033506;28;20026;-49
2022/05/08 09:38:51;;;;;;;3.25;2.95;;;24.30;99.90;;;;;;5033465;28;20480;-50
2022/05/08 09:41:26;;;;;;;4.38;3.38;;;24.30;99.90;;;;;;5033390;28;20072;-50
2022/05/08 09:43:56;;;;;;;3.88;3.20;;;24.30;99.90;;;;;;5033318;28;20029;-50
2022/05/08 09:46:23;;;;;;;4.60;2.88;;;24.30;99.90;;;;;;5032762;28;20080;-50
2022/05/08 09:48:50;;;;;;;4.53;3.63;;;24.30;99.90;;;;;;5033274;28;20095;-50
2022/05/08 09:51:16;;;;;;;5.10;3.38;;;24.40;99.90;;;;;;5033198;28;20052;-50
2022/05/08 09:53:44;;;;;;;3.60;3.30;;;24.30;99.90;;;;;;5033274;28;20396;-50
2022/05/08 09:56:11;;;;;;;3.63;2.90;;;24.40;99.90;;;;;;5033087;28;20575;-50
2022/05/08 09:58:40;;;;;;;4.28;3.40;;;24.40;99.90;;;;;;5032868;28;20491;-50
2022/05/08 10:01:07;;;;;;;4.63;3.60;;;24.40;99.90;;;;;;5032709;28;20053;-50
2022/05/08 10:03:33;;;;;;;4.15;3.10;;;24.40;99.90;;;;;;5032892;28;20469;-50
2022/05/08 10:06:18;;;;;;;4.50;3.67;;;24.40;99.90;;;;;;5032608;28;20057;-49
2022/05/08 10:08:45;;;;;;;4.43;3.42;;;24.40;99.90;;;;;;5015057;28;20021;-49
2022/05/08 10:14:03;;;;;;;5.30;4.00;;;24.50;99.90;;;;;;5032920;28;20475;-49
2022/05/08 10:17:03;;;;;;;3.88;3.22;;;24.40;99.90;;;;;;5032763;28;20032;-49
2022/05/08 10:19:32;;;;;;;4.35;3.08;;;24.50;99.90;;;;;;5032626;28;20022;-50
2022/05/08 10:22:09;;;;;;;4.03;2.92;;;24.50;99.90;;;;;;5032686;28;20051;-49
2022/05/08 10:24:41;;;;;;;3.67;3.28;;;24.50;99.90;;;;;;5032473;28;20029;-50
2022/05/08 10:27:19;;;;;;;4.00;3.30;;;24.50;99.90;;;;;;5032591;28;20033;-50
2022/05/08 10:29:50;;;;;;;3.72;3.38;;;24.50;99.90;;;;;;5032861;28;20087;-50
2022/05/08 10:32:29;;;;;;;4.22;2.90;;;24.50;99.90;;;;;;5032592;28;20049;-50
2022/05/08 10:35:18;;;;;;;3.83;3.03;;;24.50;99.90;;;;;;5014482;28;20075;-50
2022/05/08 10:38:07;;;;;;;3.40;3.10;;;24.50;99.90;;;;;;5032589;28;20040;-49
2022/05/08 10:40:34;;;;;;;3.25;2.92;;;24.50;99.90;;;;;;5032194;28;20044;-49
2022/05/08 10:43:19;;;;;;;4.15;3.15;;;24.50;99.90;;;;;;5032228;28;20032;-50
2022/05/08 10:45:46;;;;;;;4.15;3.75;;;24.50;99.90;;;;;;5032306;28;20021;-50
2022/05/08 10:48:22;;;;;;;4.10;3.45;;;24.50;99.90;;;;;;5032155;28;20065;-51
2022/05/08 10:50:51;;;;;;;6.85;3.75;;;24.50;99.90;;;;;;5032395;28;20566;-50
2022/05/08 10:53:24;;;;;;;3.83;3.10;;;24.50;99.90;;;;;;5032227;28;20624;-49
2022/05/08 10:55:51;;;;;;;5.43;3.70;;;24.50;99.90;;;;;;5031960;28;20025;-49
2022/05/08 10:58:17;;;;;;;3.20;2.90;;;24.50;99.90;;;;;;5031226;28;20045;-50
2022/05/08 11:00:43;;;;;;;3.28;2.72;;;24.50;99.90;;;;;;5031686;28;20392;-49
2022/05/08 11:03:09;;;;;;;5.90;3.75;;;24.50;99.90;;;;;;5031871;28;20476;-50
2022/05/08 11:05:37;;;;;;;4.57;3.33;;;24.60;99.90;;;;;;5031817;28;20029;-50
2022/05/08 11:08:05;;;;;;;5.63;3.38;;;24.60;99.90;;;;;;5031733;28;20025;-50
2022/05/08 11:10:50;;;;;;;3.33;3.03;;;24.50;99.90;;;;;;5031717;28;20021;-49
2022/05/08 11:13:21;;;;;;;4.45;3.33;;;24.60;99.90;;;;;;5032063;28;20060;-50
2022/05/08 11:15:48;;;;;;;3.60;3.30;;;24.60;99.90;;;;;;5031757;28;20022;-49
2022/05/08 11:18:24;;;;;;;3.70;3.30;;;24.60;99.90;;;;;;5031615;28;20029;-50
2022/05/08 11:20:59;;;;;;;3.47;3.03;;;24.60;99.90;;;;;;5031634;28;20091;-50
2022/05/08 11:23:27;;;;;;;4.43;3.15;;;24.60;99.90;;;;;;5031453;28;20484;-50
2022/05/08 11:26:13;;;;;;;4.57;3.17;;;24.60;99.90;;;;;;5031494;28;20029;-50
2022/05/08 11:28:55;;;;;;;3.65;3.25;;;24.60;99.90;;;;;;5031702;28;20075;-50
2022/05/08 11:31:23;;;;;;;3.78;3.10;;;24.70;99.90;;;;;;5031343;28;20033;-49
2022/05/08 11:36:40;;;;;;;4.35;3.30;;;24.70;99.90;;;;;;5031362;28;20025;-50
2022/05/08 11:39:10;;;;;;;4.72;3.65;;;24.70;99.90;;;;;;5031285;28;20108;-50
2022/05/08 11:41:38;;;;;;;4.95;3.80;;;24.70;99.90;;;;;;5013721;28;20029;-50
2022/05/08 11:44:13;;;;;;;5.75;5.15;;;24.70;99.90;;;;;;5031447;28;20384;-50
2022/05/08 11:46:47;;;;;;;5.53;3.72;;;24.70;99.90;;;;;;5031271;28;20101;-49
2022/05/08 11:49:23;;;;;;;5.10;4.38;;;24.70;99.90;;;;;;5031245;28;20037;-49
2022/05/08 11:51:56;;;;;;;5.75;4.93;;;24.70;99.90;;;;;;5031560;28;20492;-50
2022/05/08 11:54:30;;;;;;;6.20;4.35;;;24.70;99.90;;;;;;5031497;28;20052;-50
2022/05/08 11:57:13;;;;;;;7.38;6.63;;;24.70;99.90;;;;;;5013555;28;20507;-54
2022/05/08 11:59:39;;;;;;;7.45;6.10;;;24.70;99.90;;;;;;5030962;28;20068;-50
2022/05/08 12:02:05;;;;;;;7.30;6.55;;;24.80;99.90;;;;;;5031245;28;20091;-50
2022/05/08 12:04:34;;;;;;;7.43;6.28;;;24.80;99.90;;;;;;5031164;28;20484;-49
2022/05/08 12:07:09;;;;;;;7.13;5.80;;;24.80;99.90;;;;;;5013398;28;20036;-49
2022/05/08 12:09:45;;;;;;;7.63;6.03;;;24.80;99.90;;;;;;5032351;28;20493;-49
2022/05/08 12:12:34;;;;;;;7.13;5.55;;;24.80;99.90;;;;;;5034937;28;20112;-50
2022/05/08 12:15:07;;;;;;;8.60;6.90;;;24.80;99.90;;;;;;5034993;28;20052;-50
2022/05/08 12:17:42;;;;;;;6.97;6.13;;;24.80;99.90;;;;;;5034870;28;20033;-49
2022/05/08 12:20:08;;;;;;;7.63;6.03;;;24.90;99.90;;;;;;5034891;28;20030;-49
2022/05/08 12:22:34;;;;;;;6.85;6.15;;;24.90;99.90;;;;;;5034948;28;20021;-49
2022/05/08 12:25:00;;;;;;;6.15;5.43;;;24.90;99.90;;;;;;5017051;28;20580;-49
2022/05/08 12:27:26;;;;;;;6.47;5.25;;;24.90;99.90;;;;;;5034895;28;20093;-49
2022/05/08 12:29:53;;;;;;;7.13;5.82;;;24.90;99.90;;;;;;5035005;28;20026;-49
2022/05/08 12:32:20;;;;;;;6.80;5.65;;;24.90;99.90;;;;;;5034730;28;20026;-49
2022/05/08 12:34:47;;;;;;;8.25;6.57;;;24.90;99.90;;;;;;5034868;28;20022;-49
2022/05/08 12:37:15;;;;;;;6.32;5.72;;;24.90;99.90;;;;;;5034757;28;20049;-49
2022/05/08 12:39:42;;;;;;;6.47;5.25;;;24.90;99.90;;;;;;5034683;28;20092;-49
2022/05/08 12:42:09;;;;;;;6.93;6.10;;;25.00;99.90;;;;;;5034460;28;20071;-49
2022/05/08 12:44:36;;;;;;;6.35;5.15;;;25.00;99.90;;;;;;5034352;28;20029;-49
2022/05/08 12:47:06;;;;;;;5.95;4.72;;;25.00;99.90;;;;;;5034405;28;20121;-49
2022/05/08 12:49:33;;;;;;;5.70;4.70;;;25.00;99.90;;;;;;5034459;28;20400;-49
2022/05/08 12:51:59;;;;;;;6.22;5.55;;;25.00;99.90;;;;;;5034500;28;20033;-49
2022/05/08 12:54:25;;;;;;;7.03;5.80;;;25.00;99.90;;;;;;5034476;28;20083;-49
2022/05/08 12:56:51;;;;;;;7.30;5.53;;;25.00;99.90;;;;;;5034723;28;20037;-50
2022/05/08 13:02:02;;;;;;;6.30;5.18;;;25.00;99.90;;;;;;5034344;28;20135;-49
2022/05/08 13:04:28;;;;;;;5.93;5.05;;;25.00;99.90;;;;;;5034123;28;20033;-49
2022/05/08 13:06:54;;;;;;;6.03;4.60;;;25.00;99.90;;;;;;5034294;28;20031;-50
2022/05/08 13:09:20;;;;;;;6.10;5.28;;;25.10;99.90;;;;;;5034027;28;20044;-49
2022/05/08 13:11:46;;;;;;;5.38;4.60;;;25.10;99.90;;;;;;5033870;28;20108;-49
2022/05/08 13:14:12;;;;;;;6.90;4.78;;;25.10;99.90;;;;;;5033887;28;20025;-49
2022/05/08 13:16:38;;;;;;;6.65;4.53;;;25.10;99.90;;;;;;5033806;28;20064;-49
2022/05/08 13:19:04;;;;;;;5.93;5.28;;;25.10;99.90;;;;;;5033939;28;20049;-50
2022/05/08 13:21:31;;;;;;;6.72;5.30;;;25.10;99.90;;;;;;5033054;28;20021;-49
2022/05/08 13:23:57;;;;;;;5.83;4.73;;;25.10;99.90;;;;;;5033908;28;20056;-49
2022/05/08 13:26:23;;;;;;;5.50;5.00;;;25.10;99.90;;;;;;5033954;28;20274;-49
2022/05/08 13:28:49;;;;;;;5.55;4.43;;;25.10;99.90;;;;;;5033672;28;20100;-49
2022/05/08 13:31:15;;;;;;;6.13;4.75;;;25.10;99.90;;;;;;5033606;28;20088;-49
2022/05/08 13:33:41;;;;;;;6.20;4.90;;;25.10;99.90;;;;;;5033735;28;20022;-49